createdAt,value
2018-09-05T00:00:37.380Z,27.1
2018-09-05T00:01:27.728Z,27.1
2018-09-05T00:02:17.217Z,27.1
2018-09-05T00:03:07.985Z,27.1
2018-09-05T00:03:57.365Z,27.1
2018-09-05T00:04:47.693Z,27.1
2018-09-05T00:05:37.485Z,27.1
2018-09-05T00:06:28.185Z,27.1
2018-09-05T00:07:17.954Z,27.1
2018-09-05T00:08:07.962Z,27.1
2018-09-05T00:08:58.597Z,27.1
2018-09-05T00:09:48.362Z,27.1
2018-09-05T00:10:38.529Z,27.1
2018-09-05T00:11:27.924Z,27.1
2018-09-05T00:12:17.704Z,27.1
2018-09-05T00:31:40.053Z,27
2018-09-05T00:32:30.391Z,27.1
2018-09-05T00:33:20.168Z,27.1
2018-09-05T00:34:09.925Z,27
2018-09-05T00:35:00.290Z,27
2018-09-05T00:35:50.049Z,27
2018-09-05T00:36:40.756Z,27
2018-09-05T00:37:30.468Z,27
2018-09-05T00:38:20.830Z,27
2018-09-05T00:39:10.587Z,27
2018-09-05T00:40:00.712Z,27
2018-09-05T00:40:50.731Z,27
2018-09-05T00:41:41.359Z,27
2018-09-05T00:42:31.125Z,27
2018-09-05T00:43:21.213Z,27
2018-09-05T00:44:10.986Z,27
2018-09-05T00:45:01.072Z,27
2018-09-05T00:45:51.109Z,27
2018-09-05T00:46:40.885Z,27
2018-09-05T00:47:31.519Z,27
2018-09-05T00:48:20.427Z,27
2018-09-05T00:49:11.355Z,27
2018-09-05T00:50:01.437Z,27
2018-09-05T00:50:51.475Z,27
2018-09-05T00:51:41.854Z,27
2018-09-05T00:52:31.617Z,27
2018-09-05T00:53:21.117Z,27
2018-09-05T00:54:11.746Z,27
2018-09-05T00:55:01.819Z,27
2018-09-05T00:55:52.143Z,27
2018-09-05T00:56:42.190Z,27
2018-09-05T00:57:31.702Z,27
2018-09-05T00:58:22.070Z,26.9
2018-09-05T00:59:12.456Z,27
2018-09-05T01:00:02.230Z,27
2018-09-05T01:00:52.271Z,26.9
2018-09-05T01:01:42.021Z,27
2018-09-05T01:02:32.407Z,27
2018-09-05T01:03:22.406Z,27
2018-09-05T01:04:12.461Z,26.9
2018-09-05T01:05:02.519Z,27
2018-09-05T01:05:52.624Z,26.9
2018-09-05T01:06:42.957Z,26.9
2018-09-05T01:07:33.015Z,26.9
2018-09-05T01:08:23.081Z,27
2018-09-05T01:09:13.167Z,26.9
2018-09-05T01:10:03.433Z,26.9
2018-09-05T01:10:53.261Z,26.9
2018-09-05T01:11:43.314Z,26.9
2018-09-05T01:12:32.479Z,26.9
2018-09-05T01:13:24.004Z,26.9
2018-09-05T01:14:12.671Z,26.9
2018-09-05T01:15:03.016Z,26.9
2018-09-05T01:15:53.346Z,26.9
2018-09-05T01:16:43.700Z,26.9
2018-09-05T01:17:32.916Z,27
2018-09-05T01:18:23.823Z,26.9
2018-09-05T01:19:13.901Z,26.9
2018-09-05T01:20:03.703Z,26.9
2018-09-05T01:20:54.023Z,26.9
2018-09-05T01:21:43.573Z,26.9
2018-09-05T01:22:34.135Z,26.9
2018-09-05T01:23:24.229Z,26.9
2018-09-05T01:24:14.325Z,26.9
2018-09-05T01:25:04.064Z,26.9
2018-09-05T01:25:54.438Z,26.9
2018-09-05T01:26:44.215Z,26.9
2018-09-05T01:27:35.520Z,26.9
2018-09-05T01:28:24.317Z,26.9
2018-09-05T01:29:14.912Z,26.9
2018-09-05T01:30:04.171Z,26.9
2018-09-05T01:30:54.507Z,26.9
2018-09-05T01:31:44.592Z,26.9
2018-09-05T01:32:35.177Z,26.9
2018-09-05T01:33:24.723Z,26.9
2018-09-05T01:34:15.035Z,26.9
2018-09-05T01:35:04.847Z,26.9
2018-09-05T01:35:55.217Z,26.9
2018-09-05T01:36:44.695Z,26.9
2018-09-05T01:37:35.627Z,26.9
2018-09-05T01:38:24.520Z,26.9
2018-09-05T01:39:15.685Z,26.9
2018-09-05T01:40:05.512Z,26.9
2018-09-05T01:40:55.572Z,26.9
2018-09-05T01:41:45.643Z,26.9
2018-09-05T01:42:35.449Z,26.9
2018-09-05T01:43:25.477Z,26.9
2018-09-05T01:44:15.820Z,26.9
2018-09-05T01:45:05.352Z,26.9
2018-09-05T01:45:55.667Z,26.9
2018-09-05T01:46:46.036Z,26.9
2018-09-05T01:47:36.078Z,26.9
2018-09-05T01:48:26.160Z,26.9
2018-09-05T01:49:15.640Z,26.9
2018-09-05T01:50:05.977Z,26.9
2018-09-05T01:50:55.837Z,26.9
2018-09-05T01:51:46.417Z,26.9
2018-09-05T01:52:36.229Z,26.9
2018-09-05T01:53:26.296Z,26.9
2018-09-05T01:54:16.846Z,26.9
2018-09-05T01:55:06.119Z,26.9
2018-09-05T01:55:56.442Z,26.9
2018-09-05T01:56:46.519Z,26.9
2018-09-05T01:57:36.586Z,26.9
2018-09-05T01:58:26.634Z,26.9
2018-09-05T01:59:16.701Z,26.9
2018-09-05T02:00:06.476Z,26.9
2018-09-05T02:00:57.126Z,26.9
2018-09-05T02:01:47.229Z,26.9
2018-09-05T02:02:37.253Z,26.9
2018-09-05T02:03:26.746Z,26.9
2018-09-05T02:04:17.078Z,26.9
2018-09-05T02:05:07.466Z,26.9
2018-09-05T02:05:57.242Z,26.9
2018-09-05T02:06:47.017Z,26.9
2018-09-05T02:07:37.063Z,26.8
2018-09-05T02:08:28.418Z,26.9
2018-09-05T02:09:17.508Z,26.9
2018-09-05T02:10:07.841Z,26.9
2018-09-05T02:10:57.618Z,26.9
2018-09-05T02:11:47.680Z,26.8
2018-09-05T02:12:37.741Z,26.9
2018-09-05T02:13:28.090Z,26.9
2018-09-05T02:14:17.565Z,26.9
2018-09-05T02:15:08.191Z,26.9
2018-09-05T02:15:57.980Z,26.9
2018-09-05T02:16:48.080Z,26.8
2018-09-05T02:17:38.417Z,26.9
2018-09-05T02:18:27.932Z,26.9
2018-09-05T02:19:18.550Z,26.9
2018-09-05T02:20:08.589Z,26.9
2018-09-05T02:20:58.672Z,26.9
2018-09-05T02:21:48.517Z,26.9
2018-09-05T02:22:38.502Z,26.9
2018-09-05T02:23:28.849Z,26.9
2018-09-05T02:24:18.622Z,26.8
2018-09-05T02:25:09.499Z,26.9
2018-09-05T02:25:59.047Z,26.9
2018-09-05T02:26:49.131Z,26.9
2018-09-05T02:27:39.154Z,26.9
2018-09-05T02:28:29.243Z,26.9
2018-09-05T02:29:19.018Z,26.8
2018-09-05T02:30:09.637Z,26.8
2018-09-05T02:30:59.471Z,26.9
2018-09-05T02:31:48.943Z,26.8
2018-09-05T02:32:39.268Z,26.8
2018-09-05T02:33:29.658Z,26.8
2018-09-05T02:34:19.404Z,26.8
2018-09-05T02:35:09.468Z,26.8
2018-09-05T02:35:59.833Z,26.8
2018-09-05T02:36:50.135Z,26.8
2018-09-05T02:37:39.660Z,26.9
2018-09-05T02:38:29.449Z,26.8
2018-09-05T02:39:19.801Z,26.8
2018-09-05T02:40:10.431Z,26.8
2018-09-05T02:40:59.964Z,26.8
2018-09-05T02:41:50.573Z,26.8
2018-09-05T02:42:40.074Z,26.8
2018-09-05T02:43:30.225Z,26.8
2018-09-05T02:44:20.200Z,26.8
2018-09-05T02:45:10.485Z,26.8
2018-09-05T02:46:00.530Z,26.8
2018-09-05T02:46:50.922Z,26.8
2018-09-05T02:47:40.708Z,26.8
2018-09-05T02:48:30.493Z,26.8
2018-09-05T02:49:20.890Z,26.8
2018-09-05T02:50:10.931Z,26.8
2018-09-05T02:51:00.681Z,26.8
2018-09-05T02:51:50.503Z,26.8
2018-09-05T02:52:40.550Z,26.8
2018-09-05T02:53:30.894Z,26.8
2018-09-05T02:54:20.962Z,26.8
2018-09-05T02:55:11.022Z,26.8
2018-09-05T02:56:01.834Z,26.8
2018-09-05T02:56:51.132Z,26.8
2018-09-05T02:57:41.503Z,26.8
2018-09-05T02:58:31.049Z,26.8
2018-09-05T02:59:21.044Z,26.8
2018-09-05T03:00:11.435Z,26.8
2018-09-05T03:01:01.432Z,26.8
2018-09-05T03:01:51.234Z,26.8
2018-09-05T03:02:41.284Z,26.8
2018-09-05T03:03:31.946Z,26.8
2018-09-05T03:04:21.724Z,26.8
2018-09-05T03:05:12.062Z,26.8
2018-09-05T03:06:01.854Z,26.8
2018-09-05T03:06:52.004Z,26.8
2018-09-05T03:07:42.246Z,26.8
2018-09-05T03:08:32.048Z,26.8
2018-09-05T03:09:22.339Z,26.8
2018-09-05T03:10:11.609Z,26.8
2018-09-05T03:11:02.234Z,26.8
2018-09-05T03:11:52.380Z,26.8
2018-09-05T03:12:42.609Z,26.8
2018-09-05T03:13:32.723Z,26.8
2018-09-05T03:14:22.205Z,26.8
2018-09-05T03:15:12.841Z,26.8
2018-09-05T03:16:02.904Z,26.8
2018-09-05T03:16:52.648Z,26.8
2018-09-05T03:17:42.215Z,26.8
2018-09-05T03:18:32.823Z,26.8
2018-09-05T03:19:23.154Z,26.8
2018-09-05T03:20:12.949Z,26.8
2018-09-05T03:21:03.546Z,26.8
2018-09-05T03:21:53.091Z,26.8
2018-09-05T03:22:42.946Z,26.8
2018-09-05T03:23:33.000Z,26.8
2018-09-05T03:24:23.003Z,26.8
2018-09-05T03:25:14.023Z,26.8
2018-09-05T03:26:03.388Z,26.8
2018-09-05T03:26:53.476Z,26.8
2018-09-05T03:27:43.512Z,26.8
2018-09-05T03:28:33.875Z,26.8
2018-09-05T03:29:23.936Z,26.8
2018-09-05T03:30:14.300Z,26.8
2018-09-05T03:31:03.717Z,26.8
2018-09-05T03:31:54.163Z,26.8
2018-09-05T03:32:43.381Z,26.8
2018-09-05T03:33:34.002Z,26.7
2018-09-05T03:34:24.043Z,26.8
2018-09-05T03:35:14.435Z,26.7
2018-09-05T03:36:04.430Z,26.8
2018-09-05T03:36:54.247Z,26.7
2018-09-05T03:37:44.285Z,26.7
2018-09-05T03:38:34.342Z,26.8
2018-09-05T03:39:24.144Z,26.7
2018-09-05T03:40:14.487Z,26.7
2018-09-05T03:41:05.039Z,26.7
2018-09-05T03:41:54.613Z,26.7
2018-09-05T03:42:44.986Z,26.7
2018-09-05T03:43:35.012Z,26.8
2018-09-05T03:44:25.098Z,26.7
2018-09-05T03:45:14.600Z,26.7
2018-09-05T03:46:05.456Z,26.7
2018-09-05T03:46:55.644Z,26.7
2018-09-05T03:47:45.540Z,26.7
2018-09-05T03:48:35.711Z,26.7
2018-09-05T03:49:25.650Z,26.7
2018-09-05T03:50:15.707Z,26.7
2018-09-05T03:51:05.748Z,26.7
2018-09-05T03:51:55.399Z,26.7
2018-09-05T03:52:45.170Z,26.7
2018-09-05T03:53:35.806Z,26.7
2018-09-05T03:54:25.925Z,26.7
2018-09-05T03:55:15.964Z,26.7
2018-09-05T03:56:05.720Z,26.7
2018-09-05T03:56:56.381Z,26.7
2018-09-05T03:57:45.885Z,26.7
2018-09-05T03:58:36.191Z,26.7
2018-09-05T03:59:26.247Z,26.7
2018-09-05T04:00:16.312Z,26.7
2018-09-05T04:01:06.621Z,26.7
2018-09-05T04:01:56.469Z,26.7
2018-09-05T04:02:46.744Z,26.7
2018-09-05T04:03:36.563Z,26.7
2018-09-05T04:04:26.096Z,26.7
2018-09-05T04:05:16.742Z,26.7
2018-09-05T04:06:06.757Z,26.7
2018-09-05T04:06:56.813Z,26.7
2018-09-05T04:07:46.848Z,26.6
2018-09-05T04:08:36.964Z,26.7
2018-09-05T04:09:26.729Z,26.7
2018-09-05T04:10:16.814Z,26.6
2018-09-05T04:11:07.161Z,26.6
2018-09-05T04:11:57.032Z,26.7
2018-09-05T04:12:47.280Z,26.6
2018-09-05T04:13:37.338Z,26.6
2018-09-05T04:14:27.114Z,26.6
2018-09-05T04:15:16.889Z,26.6
2018-09-05T04:16:06.962Z,26.6
2018-09-05T04:16:58.129Z,26.6
2018-09-05T04:17:47.651Z,26.6
2018-09-05T04:18:37.482Z,26.6
2018-09-05T04:19:27.338Z,26.6
2018-09-05T04:20:17.948Z,26.6
2018-09-05T04:21:07.666Z,26.7
2018-09-05T04:21:58.580Z,26.6
2018-09-05T04:22:48.110Z,26.6
2018-09-05T04:23:37.889Z,26.6
2018-09-05T04:24:28.202Z,26.6
2018-09-05T04:25:17.735Z,26.6
2018-09-05T04:26:08.214Z,26.6
2018-09-05T04:26:58.536Z,26.6
2018-09-05T04:27:48.458Z,26.6
2018-09-05T04:28:38.253Z,26.6
2018-09-05T04:29:28.723Z,26.6
2018-09-05T04:30:18.962Z,26.6
2018-09-05T04:31:08.770Z,26.6
2018-09-05T04:31:59.058Z,26.6
2018-09-05T04:32:48.825Z,26.6
2018-09-05T04:33:38.661Z,26.6
2018-09-05T04:34:28.943Z,26.6
2018-09-05T04:35:19.015Z,26.6
2018-09-05T04:36:09.046Z,26.6
2018-09-05T04:36:59.142Z,26.6
2018-09-05T04:37:49.207Z,26.6
2018-09-05T04:38:39.212Z,26.6
2018-09-05T04:39:29.363Z,26.6
2018-09-05T04:40:18.819Z,26.6
2018-09-05T04:41:09.453Z,26.6
2018-09-05T04:41:59.282Z,26.6
2018-09-05T04:42:49.050Z,26.6
2018-09-05T05:00:29.993Z,26.6
2018-09-05T05:01:19.469Z,26.7
2018-09-05T05:02:09.326Z,26.7
2018-09-05T05:02:59.878Z,26.7
2018-09-05T05:03:49.631Z,26.7
2018-09-05T05:04:40.416Z,26.8
2018-09-05T05:05:30.734Z,26.8
2018-09-05T05:06:20.128Z,26.8
2018-09-05T05:07:10.178Z,26.8
2018-09-05T05:08:00.276Z,26.8
2018-09-05T05:08:50.308Z,26.8
2018-09-05T05:09:40.398Z,26.8
2018-09-05T05:10:30.461Z,26.9
2018-09-05T05:11:20.448Z,26.9
2018-09-05T05:12:10.248Z,26.9
2018-09-05T05:13:00.607Z,26.9
2018-09-05T05:13:50.884Z,26.8
2018-09-05T05:14:40.740Z,26.8
2018-09-05T05:15:30.800Z,26.8
2018-09-05T05:16:20.862Z,26.8
2018-09-05T05:17:10.701Z,26.8
2018-09-05T05:18:01.031Z,26.8
2018-09-05T05:18:50.796Z,26.8
2018-09-05T05:19:41.238Z,26.8
2018-09-05T05:20:31.254Z,26.8
2018-09-05T05:21:20.809Z,26.8
2018-09-05T05:22:11.322Z,26.8
2018-09-05T05:23:00.613Z,26.8
2018-09-05T05:23:51.559Z,26.8
2018-09-05T05:24:41.799Z,26.8
2018-09-05T05:25:31.576Z,26.8
2018-09-05T05:26:21.644Z,26.8
2018-09-05T05:27:11.701Z,26.7
2018-09-05T05:28:01.781Z,26.7
2018-09-05T05:28:51.834Z,26.7
2018-09-05T05:29:42.017Z,26.7
2018-09-05T05:30:31.996Z,26.7
2018-09-05T05:31:21.808Z,26.7
2018-09-05T05:32:11.833Z,26.7
2018-09-05T05:33:02.123Z,26.7
2018-09-05T05:33:52.285Z,26.7
2018-09-05T05:34:44.108Z,26.7
2018-09-05T05:35:32.785Z,26.6
2018-09-05T05:36:22.162Z,26.6
2018-09-05T05:37:12.265Z,26.6
2018-09-05T05:38:03.462Z,26.6
2018-09-05T05:38:53.166Z,26.6
2018-09-05T05:39:44.328Z,26.6
2018-09-05T05:40:32.472Z,26.6
2018-09-05T05:41:23.039Z,26.6
2018-09-05T05:42:12.857Z,26.6
2018-09-05T05:43:02.639Z,26.6
2018-09-05T05:43:52.744Z,26.6
2018-09-05T05:44:42.780Z,26.6
2018-09-05T05:45:32.635Z,26.6
2018-09-05T05:46:22.898Z,26.6
2018-09-05T05:47:12.963Z,26.6
2018-09-05T05:48:03.010Z,26.6
2018-09-05T05:48:53.091Z,26.6
2018-09-05T05:49:43.420Z,26.6
2018-09-05T05:50:33.548Z,26.6
2018-09-05T05:51:23.256Z,26.6
2018-09-05T05:52:13.344Z,26.6
2018-09-05T05:53:03.688Z,26.6
2018-09-05T05:53:53.768Z,26.6
2018-09-05T05:54:43.823Z,26.6
2018-09-05T05:55:33.041Z,26.6
2018-09-05T05:56:23.423Z,26.6
2018-09-05T05:57:13.262Z,26.5
2018-09-05T05:58:03.790Z,26.5
2018-09-05T05:58:53.870Z,26.5
2018-09-05T05:59:44.206Z,26.5
2018-09-05T06:00:34.320Z,26.5
2018-09-05T06:01:24.593Z,26.5
2018-09-05T06:02:14.409Z,26.5
2018-09-05T06:03:04.175Z,26.5
2018-09-05T06:03:54.263Z,26.5
2018-09-05T06:04:44.550Z,26.5
2018-09-05T06:05:34.372Z,26.5
2018-09-05T06:06:26.496Z,26.5
2018-09-05T06:07:14.542Z,26.5
2018-09-05T06:08:04.557Z,26.5
2018-09-05T06:08:54.917Z,26.5
2018-09-05T06:09:44.728Z,26.5
2018-09-05T06:10:34.770Z,26.5
2018-09-05T06:11:25.375Z,26.5
2018-09-05T06:12:15.917Z,26.4
2018-09-05T06:13:05.227Z,26.5
2018-09-05T06:13:55.032Z,26.4
2018-09-05T06:14:44.782Z,26.4
2018-09-05T06:15:36.000Z,26.4
2018-09-05T06:16:25.216Z,26.4
2018-09-05T06:17:15.770Z,26.4
2018-09-05T06:18:06.260Z,26.4
2018-09-05T06:18:55.715Z,26.4
2018-09-05T06:19:45.759Z,26.4
2018-09-05T06:20:35.551Z,26.4
2018-09-05T06:21:25.605Z,26.4
2018-09-05T06:22:16.229Z,26.4
2018-09-05T06:23:06.021Z,26.4
2018-09-05T06:23:56.085Z,26.4
2018-09-05T06:24:45.879Z,26.4
2018-09-05T06:25:35.885Z,26.4
2018-09-05T06:26:26.000Z,26.4
2018-09-05T06:27:16.503Z,26.4
2018-09-05T06:28:06.417Z,26.4
2018-09-05T06:28:56.186Z,26.4
2018-09-05T06:29:46.248Z,26.4
2018-09-05T06:30:38.678Z,26.4
2018-09-05T06:31:26.913Z,26.4
2018-09-05T06:32:16.456Z,26.4
2018-09-05T06:33:06.798Z,26.4
2018-09-05T06:33:56.865Z,26.4
2018-09-05T06:34:46.628Z,26.4
2018-09-05T06:35:37.223Z,26.4
2018-09-05T06:36:27.033Z,26.4
2018-09-05T06:37:17.098Z,26.4
2018-09-05T06:38:06.581Z,26.4
2018-09-05T06:38:57.018Z,26.4
2018-09-05T06:39:47.301Z,26.4
2018-09-05T06:40:37.093Z,26.4
2018-09-05T06:41:27.442Z,26.4
2018-09-05T06:42:16.957Z,26.4
2018-09-05T06:43:07.307Z,26.4
2018-09-05T06:43:57.355Z,26.4
2018-09-05T06:44:47.688Z,26.4
2018-09-05T06:45:37.814Z,26.4
2018-09-05T06:46:27.582Z,26.4
2018-09-05T06:47:17.032Z,26.4
2018-09-05T06:48:07.728Z,26.4
2018-09-05T06:48:57.757Z,26.4
2018-09-05T06:49:48.065Z,26.4
2018-09-05T06:50:37.884Z,26.4
2018-09-05T06:51:29.156Z,26.4
2018-09-05T06:52:18.325Z,26.4
2018-09-05T06:53:08.347Z,26.4
2018-09-05T06:53:58.401Z,26.4
2018-09-05T06:54:48.517Z,26.4
2018-09-05T06:55:38.244Z,26.4
2018-09-05T06:56:28.579Z,26.4
2018-09-05T06:57:18.657Z,26.4
2018-09-05T06:58:08.936Z,26.4
2018-09-05T06:58:58.529Z,26.3
2018-09-05T06:59:48.568Z,35.3
2018-09-05T07:00:38.907Z,54.2
2018-09-05T07:01:28.727Z,59.1
2018-09-05T07:02:19.037Z,59
2018-09-05T07:03:08.544Z,58.5
2018-09-05T07:03:59.945Z,57.4
2018-09-05T07:04:49.233Z,55.6
2018-09-05T07:05:39.291Z,54.3
2018-09-05T07:06:29.377Z,53.4
2018-09-05T07:07:19.141Z,52.7
2018-09-05T07:08:09.492Z,52
2018-09-05T07:08:59.819Z,51.4
2018-09-05T07:09:49.770Z,50.8
2018-09-05T07:10:38.823Z,50.2
2018-09-05T07:11:29.196Z,49.6
2018-09-05T07:12:19.822Z,49.1
2018-09-05T07:13:09.891Z,48.4
2018-09-05T07:13:59.588Z,47.9
2018-09-05T07:14:49.728Z,47.4
2018-09-05T07:15:39.598Z,46.9
2018-09-05T07:16:29.590Z,46.4
2018-09-05T07:17:20.279Z,45.9
2018-09-05T07:18:10.008Z,45.5
2018-09-05T07:18:59.755Z,45.1
2018-09-05T07:19:50.118Z,44.6
2018-09-05T07:20:40.171Z,44.2
2018-09-05T07:21:31.857Z,43.8
2018-09-05T07:22:20.335Z,43.3
2018-09-05T07:23:10.720Z,42.9
2018-09-05T07:24:00.732Z,42.6
2018-09-05T07:24:51.121Z,42.3
2018-09-05T07:25:40.849Z,41.9
2018-09-05T07:26:30.636Z,41.6
2018-09-05T07:27:20.700Z,41.3
2018-09-05T07:28:10.732Z,45.1
2018-09-05T07:29:01.129Z,49.9
2018-09-05T07:29:50.065Z,61
2018-09-05T07:30:41.523Z,62.7
2018-09-05T07:31:31.314Z,61
2018-09-05T07:32:21.379Z,59.6
2018-09-05T07:33:11.459Z,58.7
2018-09-05T07:34:01.223Z,57.9
2018-09-05T07:34:51.603Z,57.4
2018-09-05T07:35:42.070Z,56.8
2018-09-05T07:36:31.768Z,56
2018-09-05T07:37:21.283Z,55.3
2018-09-05T07:38:11.882Z,54.6
2018-09-05T07:39:01.601Z,53.8
2018-09-05T07:39:52.200Z,53.2
2018-09-05T07:40:42.001Z,52.5
2018-09-05T07:41:32.071Z,51.8
2018-09-05T07:42:21.853Z,51.3
2018-09-05T09:15:00.345Z,70.2
2018-09-05T09:15:49.878Z,70.1
2018-09-05T09:16:39.935Z,70.1
2018-09-05T09:17:29.997Z,70.3
2018-09-05T09:18:20.373Z,70.4
2018-09-05T09:19:10.695Z,70.6
2018-09-05T09:20:00.442Z,70.8
2018-09-05T09:20:50.790Z,71.1
2018-09-05T09:21:40.584Z,71.3
2018-09-05T09:22:30.931Z,71.1
2018-09-05T09:23:21.021Z,70.6
2018-09-05T09:24:10.815Z,70.2
2018-09-05T09:25:01.390Z,70
2018-09-05T09:25:50.607Z,70.3
2018-09-05T09:26:40.745Z,70.8
2018-09-05T09:27:31.053Z,71.3
2018-09-05T09:28:21.268Z,71.6
2018-09-05T09:29:10.618Z,72.1
2018-09-05T09:30:01.513Z,72.1
2018-09-05T09:30:51.312Z,72.2
2018-09-05T09:31:41.639Z,72.3
2018-09-05T09:32:31.469Z,72.3
2018-09-05T09:33:21.767Z,72.5
2018-09-05T09:34:11.292Z,72.6
2018-09-05T09:35:01.696Z,72.9
2018-09-05T09:35:51.698Z,72.9
2018-09-05T09:36:41.791Z,72.2
2018-09-05T09:37:31.576Z,71.3
2018-09-05T09:38:21.905Z,71.2
2018-09-05T09:39:12.239Z,71.6
2018-09-05T09:40:02.052Z,72.2
2018-09-05T09:40:52.114Z,72.5
2018-09-05T09:41:42.159Z,72.7
2018-09-05T09:42:31.921Z,72.8
2018-09-05T09:43:22.561Z,72.7
2018-09-05T09:44:12.638Z,72.4
2018-09-05T09:45:02.428Z,72.4
2018-09-05T09:45:52.791Z,72.5
2018-09-05T09:46:42.899Z,72.6
2018-09-05T09:47:32.336Z,72.7
2018-09-05T09:48:22.703Z,72.8
2018-09-05T09:49:13.046Z,72.9
2018-09-05T09:50:03.088Z,72.9
2018-09-05T09:50:52.588Z,72.9
2018-09-05T09:51:42.651Z,72.9
2018-09-05T09:52:33.041Z,73.1
2018-09-05T09:53:22.813Z,73.1
2018-09-05T09:54:12.560Z,73.2
2018-09-05T09:55:02.920Z,73.3
2018-09-05T09:55:53.077Z,73.4
2018-09-05T09:56:43.559Z,73.4
2018-09-05T09:57:33.114Z,73.4
2018-09-05T09:58:23.487Z,73.4
2018-09-05T09:59:13.367Z,73.4
2018-09-05T10:00:03.888Z,73.4
2018-09-05T10:00:53.389Z,73.4
2018-09-05T10:01:44.249Z,73.4
2018-09-05T10:02:33.270Z,73.5
2018-09-05T10:03:24.727Z,73.6
2018-09-05T10:04:14.198Z,73.6
2018-09-05T10:05:03.996Z,73.6
2018-09-05T10:05:53.767Z,73.7
2018-09-05T10:06:44.665Z,73.8
2018-09-05T10:07:34.292Z,73.8
2018-09-05T10:08:24.536Z,73.8
2018-09-05T10:09:14.303Z,73.9
2018-09-05T10:10:05.687Z,73.9
2018-09-05T10:10:54.686Z,73.9
2018-09-05T10:11:44.495Z,73.9
2018-09-05T10:12:34.555Z,73.9
2018-09-05T10:13:24.652Z,73.9
2018-09-05T10:14:14.994Z,74
2018-09-05T10:15:04.967Z,74
2018-09-05T10:15:55.102Z,74
2018-09-05T10:16:45.433Z,74
2018-09-05T10:17:35.286Z,74
2018-09-05T10:18:25.315Z,74
2018-09-05T10:19:15.096Z,74
2018-09-05T10:20:05.227Z,74
2018-09-05T10:20:55.902Z,74.1
2018-09-05T10:21:44.991Z,74.1
2018-09-05T10:22:35.765Z,74.2
2018-09-05T10:23:24.880Z,74.3
2018-09-05T10:24:15.764Z,74.3
2018-09-05T10:25:05.261Z,74.1
2018-09-05T10:25:55.948Z,73.9
2018-09-05T10:26:45.683Z,74
2018-09-05T10:27:36.053Z,74.1
2018-09-05T10:28:25.216Z,74.3
2018-09-05T10:29:15.880Z,74.4
2018-09-05T10:30:05.633Z,74.4
2018-09-05T10:30:56.288Z,74.5
2018-09-05T10:31:46.279Z,74.5
2018-09-05T10:32:36.111Z,74.6
2018-09-05T10:33:26.235Z,74.7
2018-09-05T10:34:15.956Z,74.8
2018-09-05T10:35:06.306Z,74.9
2018-09-05T10:35:56.107Z,74.9
2018-09-05T10:36:46.435Z,74.9
2018-09-05T10:37:36.258Z,74.9
2018-09-05T10:38:26.655Z,74.8
2018-09-05T10:39:16.727Z,74.9
2018-09-05T10:40:06.689Z,74.9
2018-09-05T10:40:56.744Z,75.1
2018-09-05T10:41:46.542Z,75.3
2018-09-05T10:42:37.465Z,75.4
2018-09-05T10:43:27.468Z,75.5
2018-09-05T10:44:17.874Z,75.5
2018-09-05T10:45:06.816Z,75.4
2018-09-05T10:45:57.425Z,75.4
2018-09-05T10:46:46.950Z,75.4
2018-09-05T10:47:37.004Z,75.4
2018-09-05T10:48:27.625Z,75.4
2018-09-05T10:49:17.412Z,75.5
2018-09-05T10:50:07.471Z,75.6
2018-09-05T10:50:57.829Z,75.6
2018-09-05T10:51:48.067Z,75.6
2018-09-05T10:52:37.374Z,75.6
2018-09-05T10:53:28.044Z,75.6
2018-09-05T10:54:18.096Z,75.5
2018-09-05T10:55:07.889Z,75.6
2018-09-05T10:55:58.229Z,75.6
2018-09-05T10:56:47.434Z,75.7
2018-09-05T10:57:38.579Z,75.6
2018-09-05T10:58:28.429Z,75.6
2018-09-05T10:59:17.910Z,75.7
2018-09-05T11:00:08.575Z,75.7
2018-09-05T11:00:58.316Z,75.8
2018-09-05T11:01:48.666Z,75.8
2018-09-05T11:02:38.444Z,75.8
2018-09-05T11:03:28.769Z,75.8
2018-09-05T11:04:18.743Z,75.7
2018-09-05T11:05:08.652Z,75.8
2018-09-05T11:05:58.731Z,75.8
2018-09-05T11:06:48.811Z,75.8
2018-09-05T11:07:38.617Z,75.7
2018-09-05T11:08:29.440Z,75.6
2018-09-05T11:09:19.294Z,75.6
2018-09-05T11:10:08.775Z,75.6
2018-09-05T11:11:00.039Z,75.6
2018-09-05T11:11:49.186Z,75.6
2018-09-05T11:12:39.499Z,75.6
2018-09-05T11:13:29.023Z,75.6
2018-09-05T11:14:19.658Z,75.6
2018-09-05T11:15:09.440Z,75.5
2018-09-05T11:15:59.221Z,75.5
2018-09-05T11:16:49.553Z,75.6
2018-09-05T11:17:40.213Z,75.6
2018-09-05T11:18:29.452Z,75.6
2018-09-05T11:19:19.742Z,75.6
2018-09-05T11:20:09.825Z,75.7
2018-09-05T11:20:59.910Z,75.8
2018-09-05T11:21:49.954Z,75.8
2018-09-05T11:22:40.042Z,75.9
2018-09-05T11:23:30.105Z,76
2018-09-05T11:24:20.397Z,76
2018-09-05T11:25:10.509Z,75.9
2018-09-05T11:26:00.572Z,75.8
2018-09-05T11:26:50.647Z,75.1
2018-09-05T11:27:40.947Z,73.8
2018-09-05T11:28:30.187Z,72.5
2018-09-05T11:29:20.299Z,72.1
2018-09-05T11:30:10.329Z,72.8
2018-09-05T11:31:00.944Z,73.5
2018-09-05T11:31:50.473Z,73.4
2018-09-05T11:32:40.797Z,72.9
2018-09-05T11:33:30.851Z,72.9
2018-09-05T11:34:21.185Z,73.3
2018-09-05T11:35:11.016Z,73.6
2018-09-05T11:36:01.334Z,73.9
2018-09-05T11:36:51.363Z,74.1
2018-09-05T11:37:41.471Z,73.5
2018-09-05T11:38:31.521Z,71.8
2018-09-05T11:39:21.858Z,69.8
2018-09-05T11:40:11.106Z,68.4
2018-09-05T11:41:01.467Z,67.3
2018-09-05T11:41:51.228Z,66.1
2018-09-05T11:42:41.298Z,65.1
2018-09-05T11:43:31.646Z,64.1
2018-09-05T11:44:22.233Z,63.2
2018-09-05T11:45:12.028Z,62.4
2018-09-05T11:46:02.125Z,61.6
2018-09-05T11:46:51.893Z,60.8
2018-09-05T11:47:42.333Z,63
2018-09-05T11:48:32.370Z,69.2
2018-09-05T11:49:22.415Z,75.4
2018-09-05T11:50:12.438Z,75.4
2018-09-05T11:51:01.972Z,72.4
2018-09-05T11:51:52.364Z,69.9
2018-09-05T11:52:42.366Z,69.3
2018-09-05T11:53:32.709Z,68.5
2018-09-05T11:54:22.465Z,67.5
2018-09-05T11:55:12.875Z,66.3
2018-09-05T11:56:02.968Z,65.2
2018-09-05T11:56:52.404Z,64.1
2018-09-05T11:57:42.955Z,63.3
2018-09-05T11:58:32.867Z,62.4
2018-09-05T11:59:22.945Z,61.6
2018-09-05T12:00:12.961Z,60.9
2018-09-05T12:01:03.357Z,60.8
2018-09-05T12:01:53.119Z,61.7
2018-09-05T12:02:43.243Z,69.3
2018-09-05T12:03:33.499Z,74.6
2018-09-05T12:04:23.292Z,74.2
2018-09-05T12:05:13.652Z,71.6
2018-09-05T12:06:04.023Z,69.3
2018-09-05T12:06:53.785Z,68.4
2018-09-05T12:07:43.811Z,67.3
2018-09-05T12:08:33.628Z,66.3
2018-09-05T12:09:23.179Z,65
2018-09-05T12:10:13.786Z,63.8
2018-09-05T12:11:03.864Z,62.8
2018-09-05T12:11:53.909Z,62
2018-09-05T12:12:43.626Z,61.1
2018-09-05T12:13:34.283Z,60.4
2018-09-05T12:14:24.322Z,59.6
2018-09-05T12:15:14.398Z,58.9
2018-09-05T12:16:04.428Z,61.3
2018-09-05T12:16:54.531Z,66.4
2018-09-05T12:17:44.598Z,74.1
2018-09-05T12:18:34.929Z,74.8
2018-09-05T12:19:24.467Z,72.6
2018-09-05T12:20:15.097Z,69.9
2018-09-05T12:21:04.393Z,68.8
2018-09-05T12:21:54.686Z,67.8
2018-09-05T12:22:45.004Z,66.8
2018-09-05T12:23:34.995Z,65.7
2018-09-05T12:24:24.850Z,64.6
2018-09-05T12:25:15.188Z,63.5
2018-09-05T12:26:04.970Z,62.6
2018-09-05T12:26:55.338Z,61.8
2018-09-05T12:27:44.569Z,61.1
2018-09-05T12:28:35.439Z,60.4
2018-09-05T12:29:25.817Z,59.7
2018-09-05T12:30:15.023Z,59.1
2018-09-05T12:31:05.061Z,58.3
2018-09-05T12:31:55.407Z,57.7
2018-09-05T12:32:45.770Z,59.4
2018-09-05T12:33:35.529Z,62.7
2018-09-05T12:34:25.607Z,71.9
2018-09-05T12:35:15.201Z,74
2018-09-05T12:36:05.734Z,72.6
2018-09-05T12:36:55.596Z,70.3
2018-09-05T12:37:46.153Z,69.2
2018-09-05T12:38:36.207Z,68.1
2018-09-05T12:39:26.297Z,67.1
2018-09-05T12:40:16.082Z,66
2018-09-05T12:41:06.651Z,64.9
2018-09-05T12:41:56.472Z,63.8
2018-09-05T12:42:46.259Z,62.9
2018-09-05T12:43:36.059Z,62.2
2018-09-05T12:44:26.681Z,61.5
2018-09-05T12:45:16.736Z,60.8
2018-09-05T12:46:06.511Z,60
2018-09-05T12:46:56.309Z,59.4
2018-09-05T12:47:46.981Z,58.7
2018-09-05T12:48:36.153Z,58
2018-09-05T12:49:26.511Z,57.4
2018-09-05T12:50:16.871Z,56.7
2018-09-05T12:51:06.152Z,56
2018-09-05T12:51:57.248Z,55.4
2018-09-05T12:52:46.746Z,55.6
2018-09-05T12:53:36.553Z,58.8
2018-09-05T12:54:27.183Z,67.5
2018-09-05T12:55:17.228Z,72.6
2018-09-05T12:56:07.605Z,72.1
2018-09-05T12:56:57.696Z,70.2
2018-09-05T12:57:47.435Z,69.1
2018-09-05T12:58:37.494Z,67.8
2018-09-05T12:59:28.643Z,66.7
2018-09-05T13:00:17.073Z,65.7
2018-09-05T13:01:07.998Z,64.8
2018-09-05T13:01:58.020Z,63.9
2018-09-05T13:02:47.810Z,63.2
2018-09-05T13:03:38.125Z,62.3
2018-09-05T13:04:28.287Z,61.6
2018-09-05T13:05:17.746Z,60.8
2018-09-05T13:06:08.417Z,59.9
2018-09-05T13:06:58.485Z,59.2
2018-09-05T13:08:38.584Z,57.9
2018-09-05T13:09:28.675Z,57.2
2018-09-05T13:10:18.699Z,56.6
2018-09-05T13:11:07.988Z,55.9
2018-09-05T13:11:58.869Z,55.4
2018-09-05T13:12:48.737Z,54.8
2018-09-05T13:13:39.014Z,54.3
2018-09-05T13:14:27.901Z,53.8
2018-09-05T13:15:18.792Z,53.3
2018-09-05T13:16:09.430Z,52.7
2018-09-05T13:16:59.217Z,52.2
2018-09-05T13:17:48.718Z,51.8